createdAt,value
2023-02-24T00:01:28.547Z,68.38
2023-02-24T00:03:57.012Z,68.68
2023-02-24T00:06:24.521Z,68.72
2023-02-24T00:08:51.175Z,68.97
2023-02-24T00:11:19.054Z,69.11
2023-02-24T00:13:48.645Z,69.13
2023-02-24T00:16:19.148Z,69.15
2023-02-24T00:18:45.935Z,69.38
2023-02-24T00:21:15.095Z,69.48
2023-02-24T00:23:46.477Z,69.56
2023-02-24T00:26:14.010Z,70.27
2023-02-24T00:28:40.853Z,70.38
2023-02-24T00:31:10.822Z,70.89
2023-02-24T00:33:39.430Z,71.19
2023-02-24T00:36:17.056Z,71.31
2023-02-24T00:38:47.040Z,71.48
2023-02-24T00:41:15.707Z,71.44
2023-02-24T00:43:47.021Z,71.28
2023-02-24T00:46:17.940Z,71.95
2023-02-24T00:48:48.053Z,72.47
2023-02-24T00:51:23.333Z,72.58
2023-02-24T00:53:57.007Z,72.11
2023-02-24T00:56:24.629Z,72.59
2023-02-24T00:58:51.245Z,72.92
2023-02-24T01:01:20.132Z,73.18
2023-02-24T01:03:49.268Z,72.60
2023-02-24T01:06:17.819Z,72.61
2023-02-24T01:08:47.511Z,72.76
2023-02-24T01:11:33.613Z,72.63
2023-02-24T01:14:00.438Z,72.83
2023-02-24T01:16:28.633Z,72.69
2023-02-24T01:18:55.265Z,72.89
2023-02-24T01:21:22.223Z,73.40
2023-02-24T01:23:49.983Z,73.38
2023-02-24T01:26:17.589Z,73.24
2023-02-24T01:28:46.545Z,72.92
2023-02-24T01:31:13.397Z,72.85
2023-02-24T01:33:40.096Z,72.82
2023-02-24T01:36:17.161Z,72.88
2023-02-24T01:38:44.012Z,72.98
2023-02-24T01:41:12.732Z,73.03
2023-02-24T01:44:14.767Z,73.36
2023-02-24T01:46:42.701Z,73.32
2023-02-24T01:49:16.036Z,73.21
2023-02-24T01:51:55.030Z,72.74
2023-02-24T01:54:22.914Z,72.75
2023-02-24T01:56:50.002Z,72.80
2023-02-24T01:59:16.622Z,72.77
2023-02-24T02:01:43.395Z,72.50
2023-02-24T02:04:18.711Z,72.38
2023-02-24T02:06:45.756Z,72.57
2023-02-24T02:09:14.985Z,72.95
2023-02-24T02:11:42.764Z,73.22
2023-02-24T02:14:09.898Z,73.17
2023-02-24T02:16:45.777Z,73.11
2023-02-24T02:19:50.156Z,73.03
2023-02-24T02:22:19.712Z,73.48
2023-02-24T02:24:50.872Z,73.12
2023-02-24T02:27:21.181Z,73.13
2023-02-24T02:30:13.925Z,73.23
2023-02-24T02:32:52.355Z,72.87
2023-02-24T02:35:24.738Z,73.01
2023-02-24T02:37:59.020Z,72.80
2023-02-24T02:40:37.158Z,73.16
2023-02-24T02:43:41.966Z,73.29
2023-02-24T02:46:15.871Z,73.48
2023-02-24T02:48:47.580Z,73.36
2023-02-24T02:51:17.549Z,73.18
2023-02-24T02:53:45.762Z,73.30
2023-02-24T02:56:15.697Z,73.12
2023-02-24T02:58:54.616Z,73.04
2023-02-24T03:01:28.391Z,73.02
2023-02-24T03:03:56.872Z,72.67
2023-02-24T03:06:27.953Z,72.77
2023-02-24T03:09:16.148Z,72.93
2023-02-24T03:11:44.308Z,73.72
2023-02-24T03:14:12.231Z,74.10
2023-02-24T03:16:43.060Z,73.99
2023-02-24T03:19:10.546Z,73.56
2023-02-24T03:21:42.569Z,73.64
2023-02-24T03:24:09.378Z,73.97
2023-02-24T03:26:43.820Z,74.52
2023-02-24T03:29:26.833Z,74.38
2023-02-24T03:31:59.576Z,74.53
2023-02-24T03:34:48.870Z,74.55
2023-02-24T03:37:15.593Z,74.55
2023-02-24T03:39:42.319Z,74.65
2023-02-24T03:42:12.576Z,74.80
2023-02-24T03:44:39.343Z,74.96
2023-02-24T03:47:05.995Z,74.92
2023-02-24T03:49:32.675Z,74.99
2023-02-24T03:52:29.189Z,74.98
2023-02-24T03:55:06.899Z,74.95
2023-02-24T03:57:36.442Z,75.00
2023-02-24T04:00:25.740Z,75.27
2023-02-24T04:03:11.657Z,75.41
2023-02-24T04:06:01.773Z,75.57
2023-02-24T04:08:30.195Z,75.71
2023-02-24T04:11:00.502Z,76.10
2023-02-24T04:13:46.660Z,76.27
2023-02-24T04:16:29.710Z,76.38
2023-02-24T04:18:58.427Z,76.23
2023-02-24T04:21:26.944Z,76.07
2023-02-24T04:23:53.571Z,75.86
2023-02-24T04:26:20.274Z,75.71
2023-02-24T04:28:48.719Z,75.53
2023-02-24T04:31:18.467Z,75.68
2023-02-24T04:33:50.426Z,75.50
2023-02-24T04:36:18.208Z,75.09
2023-02-24T04:38:45.999Z,74.96
2023-02-24T04:41:21.212Z,74.86
2023-02-24T04:43:50.806Z,75.00
2023-02-24T04:46:18.640Z,74.98
2023-02-24T04:48:45.539Z,75.04
2023-02-24T04:51:13.233Z,74.87
2023-02-24T04:53:39.928Z,75.23
2023-02-24T04:56:10.061Z,75.44
2023-02-24T04:58:38.282Z,75.41
2023-02-24T05:01:10.741Z,75.31
2023-02-24T05:03:37.987Z,75.19
2023-02-24T05:06:06.388Z,75.03
2023-02-24T05:08:33.422Z,74.97
2023-02-24T05:11:06.863Z,75.03
2023-02-24T05:13:33.843Z,74.98
2023-02-24T05:16:06.385Z,74.52
2023-02-24T05:18:37.233Z,74.39
2023-02-24T05:21:27.601Z,74.83
2023-02-24T05:23:54.744Z,74.94
2023-02-24T05:26:24.232Z,74.74
2023-02-24T05:28:52.371Z,74.76
2023-02-24T05:31:21.772Z,75.12
2023-02-24T05:33:49.739Z,75.75
2023-02-24T05:36:17.680Z,75.42
2023-02-24T05:38:48.360Z,75.15
2023-02-24T05:41:18.675Z,75.14
2023-02-24T05:44:05.049Z,75.61
2023-02-24T05:46:33.243Z,75.12
2023-02-24T05:49:04.516Z,75.25
2023-02-24T05:51:39.060Z,74.98
2023-02-24T05:54:08.038Z,74.44
2023-02-24T05:56:36.006Z,73.73
2023-02-24T05:59:04.497Z,73.20
2023-02-24T06:01:35.736Z,73.14
2023-02-24T06:04:06.790Z,73.13
2023-02-24T06:06:38.477Z,73.18
2023-02-24T06:09:11.018Z,73.25
2023-02-24T06:11:38.685Z,73.36
2023-02-24T06:14:07.199Z,73.12
2023-02-24T06:16:34.822Z,72.80
2023-02-24T06:19:01.489Z,70.99
2023-02-24T06:21:29.978Z,68.22
2023-02-24T06:24:00.728Z,66.00
2023-02-24T06:26:29.917Z,65.10
2023-02-24T06:28:58.084Z,64.64
2023-02-24T06:31:25.177Z,64.70
2023-02-24T06:33:53.325Z,63.65
2023-02-24T06:36:20.708Z,62.02
2023-02-24T06:38:47.415Z,59.63
2023-02-24T06:41:14.082Z,59.42
2023-02-24T06:43:43.341Z,57.12
2023-02-24T06:46:11.747Z,54.33
2023-02-24T06:48:38.626Z,54.35
2023-02-24T06:51:13.754Z,52.39
2023-02-24T06:53:43.338Z,51.60
2023-02-24T06:56:19.667Z,50.68
2023-02-24T06:58:48.061Z,51.24
2023-02-24T07:01:15.803Z,52.21
2023-02-24T07:04:02.639Z,53.18
2023-02-24T07:06:34.525Z,54.21
2023-02-24T07:09:05.549Z,55.42
2023-02-24T07:11:32.604Z,56.55
2023-02-24T07:13:59.327Z,58.14
2023-02-24T07:16:28.708Z,58.67
2023-02-24T07:18:56.838Z,59.43
2023-02-24T07:21:24.588Z,59.60
2023-02-24T07:23:58.784Z,59.70
2023-02-24T07:26:26.276Z,58.10
2023-02-24T07:28:54.991Z,55.13
2023-02-24T07:31:24.336Z,52.68
2023-02-24T07:33:56.775Z,50.51
2023-02-24T07:36:23.549Z,50.27
2023-02-24T07:38:55.256Z,49.61
2023-02-24T07:41:23.009Z,52.08
2023-02-24T07:43:53.316Z,52.75
2023-02-24T07:46:25.033Z,50.48
2023-02-24T07:48:52.485Z,49.34
2023-02-24T07:51:21.282Z,48.33
2023-02-24T07:53:59.038Z,47.56
2023-02-24T07:56:27.110Z,47.54
2023-02-24T07:59:07.906Z,47.23
2023-02-24T08:01:39.093Z,46.56
2023-02-24T08:04:12.630Z,45.79
2023-02-24T08:06:45.472Z,46.26
2023-02-24T08:09:20.524Z,45.72
2023-02-24T08:11:52.224Z,45.63
2023-02-24T08:14:23.845Z,45.42
2023-02-24T08:16:59.515Z,44.20
2023-02-24T08:19:32.931Z,44.68
2023-02-24T08:22:28.714Z,45.35
2023-02-24T08:24:56.636Z,43.93
2023-02-24T08:27:24.544Z,44.21
2023-02-24T08:29:58.577Z,43.42
2023-02-24T08:32:37.092Z,43.46
2023-02-24T08:35:05.864Z,43.59
2023-02-24T08:37:39.836Z,42.25
2023-02-24T08:40:30.837Z,42.12
2023-02-24T08:43:17.412Z,41.36
2023-02-24T08:45:56.653Z,39.54
2023-02-24T08:48:43.437Z,40.22
2023-02-24T08:51:23.022Z,40.94
2023-02-24T08:53:53.259Z,41.89
2023-02-24T08:56:24.797Z,40.35
2023-02-24T08:58:58.786Z,41.23
2023-02-24T09:01:34.886Z,40.51
2023-02-24T09:04:07.510Z,40.56
2023-02-24T09:06:46.084Z,40.72
2023-02-24T09:09:21.434Z,40.15
2023-02-24T09:11:58.570Z,40.81
2023-02-24T09:14:28.459Z,41.69
2023-02-24T09:17:03.826Z,41.80
2023-02-24T09:19:40.641Z,43.95
2023-02-24T09:22:21.201Z,43.72
2023-02-24T09:24:51.184Z,45.55
2023-02-24T09:27:18.000Z,46.11
2023-02-24T09:29:50.546Z,45.07
2023-02-24T09:32:17.398Z,44.79
2023-02-24T09:34:44.511Z,46.53
2023-02-24T09:37:25.082Z,47.44
2023-02-24T09:39:57.744Z,46.86
2023-02-24T09:42:27.153Z,45.97
2023-02-24T09:45:00.434Z,46.13
2023-02-24T09:47:45.722Z,46.24
2023-02-24T09:50:48.259Z,45.86
2023-02-24T09:53:20.032Z,46.41
2023-02-24T09:56:00.571Z,46.13
2023-02-24T09:58:49.348Z,45.82
2023-02-24T10:01:22.777Z,45.67
2023-02-24T10:04:20.316Z,45.97
2023-02-24T10:07:09.119Z,47.00
2023-02-24T10:09:39.479Z,46.26
2023-02-24T10:12:17.206Z,47.16
2023-02-24T10:15:00.063Z,47.45
2023-02-24T10:17:40.262Z,48.29
2023-02-24T10:20:28.662Z,47.09
2023-02-24T10:23:03.541Z,48.42
2023-02-24T10:25:41.450Z,45.96
2023-02-24T10:28:15.070Z,46.53
2023-02-24T10:31:25.658Z,45.45
2023-02-24T10:33:56.441Z,45.93
2023-02-24T10:36:30.691Z,46.33
2023-02-24T10:38:57.455Z,47.08
2023-02-24T10:41:29.386Z,47.48
2023-02-24T10:43:56.740Z,47.50
2023-02-24T10:46:40.084Z,47.54
2023-02-24T10:49:10.089Z,48.36
2023-02-24T10:51:44.798Z,47.98
2023-02-24T10:54:54.897Z,47.92
2023-02-24T10:57:38.294Z,47.51
2023-02-24T11:00:18.494Z,46.89
2023-02-24T11:03:31.389Z,47.40
2023-02-24T11:06:04.953Z,46.66
2023-02-24T11:08:48.184Z,44.92
2023-02-24T11:11:54.080Z,45.74
2023-02-24T11:14:39.258Z,45.32
2023-02-24T11:17:16.353Z,45.09
2023-02-24T11:20:47.362Z,43.61
2023-02-24T11:23:18.191Z,42.12
2023-02-24T11:25:58.366Z,42.17
2023-02-24T11:28:49.608Z,42.87
2023-02-24T11:31:41.415Z,41.18
2023-02-24T11:34:19.073Z,41.81
2023-02-24T11:36:57.257Z,38.87
2023-02-24T11:39:59.219Z,40.39
2023-02-24T11:42:37.052Z,40.61
2023-02-24T11:45:24.844Z,40.92
2023-02-24T11:48:20.386Z,44.19
2023-02-24T11:50:58.702Z,44.21
2023-02-24T11:53:27.082Z,45.24
2023-02-24T11:56:13.846Z,46.24
2023-02-24T11:58:54.704Z,46.96
2023-02-24T12:01:44.421Z,45.61
2023-02-24T12:04:34.638Z,45.70
2023-02-24T12:07:17.919Z,47.10
2023-02-24T12:09:50.418Z,47.60
2023-02-24T12:12:23.592Z,48.10
2023-02-24T12:15:21.369Z,48.77
2023-02-24T12:18:20.065Z,48.31
2023-02-24T12:21:05.862Z,49.66
2023-02-24T12:23:43.856Z,49.14
2023-02-24T12:26:26.189Z,49.71
2023-02-24T12:29:03.165Z,49.44
2023-02-24T12:31:53.534Z,49.40
2023-02-24T12:34:46.181Z,50.26
2023-02-24T12:37:40.196Z,50.31
2023-02-24T12:40:24.979Z,49.75
2023-02-24T12:43:23.078Z,49.11
2023-02-24T12:46:19.131Z,49.34
2023-02-24T12:48:59.398Z,50.42
2023-02-24T12:52:09.460Z,49.87
2023-02-24T12:55:01.094Z,49.16
2023-02-24T12:57:53.860Z,50.09
2023-02-24T13:00:39.255Z,48.31
2023-02-24T13:03:27.668Z,48.25
2023-02-24T13:06:09.851Z,45.53
2023-02-24T13:08:48.514Z,47.84
2023-02-24T13:11:37.552Z,48.80
2023-02-24T13:14:31.740Z,50.18
2023-02-24T13:17:05.163Z,51.09
2023-02-24T13:19:32.067Z,50.11
2023-02-24T13:22:18.005Z,50.51
2023-02-24T13:25:07.824Z,46.40
2023-02-24T13:27:35.916Z,46.65
2023-02-24T13:30:26.283Z,45.05
2023-02-24T13:33:00.932Z,46.62
2023-02-24T13:35:27.471Z,45.54
2023-02-24T13:37:54.143Z,45.74
2023-02-24T13:40:23.975Z,47.80
2023-02-24T13:43:29.449Z,49.99
2023-02-24T13:45:58.462Z,50.71
2023-02-24T13:48:45.604Z,52.07
2023-02-24T13:51:52.530Z,51.67
2023-02-24T13:54:28.512Z,51.96
2023-02-24T13:57:22.574Z,52.83
2023-02-24T13:59:52.548Z,52.94
2023-02-24T14:02:23.160Z,53.17
2023-02-24T14:04:57.039Z,52.87
2023-02-24T14:07:32.576Z,52.73
2023-02-24T14:10:05.329Z,53.11
2023-02-24T14:12:34.317Z,53.28
2023-02-24T14:15:02.329Z,53.94
2023-02-24T14:17:34.242Z,54.04
2023-02-24T14:20:09.822Z,53.15
2023-02-24T14:22:58.817Z,53.61
2023-02-24T14:25:27.727Z,53.74
2023-02-24T14:27:55.672Z,52.86
2023-02-24T14:30:31.512Z,51.59
2023-02-24T14:32:58.385Z,51.71
2023-02-24T14:35:35.220Z,51.62
2023-02-24T14:38:02.416Z,52.38
2023-02-24T14:40:29.269Z,52.40
2023-02-24T14:42:57.233Z,52.45
2023-02-24T14:45:26.396Z,52.54
2023-02-24T14:47:54.182Z,53.03
2023-02-24T14:50:26.350Z,53.26
2023-02-24T14:53:05.031Z,53.49
2023-02-24T14:55:34.366Z,54.58
2023-02-24T14:58:06.381Z,54.58
2023-02-24T15:00:36.590Z,54.92
2023-02-24T15:03:21.114Z,55.49
2023-02-24T15:05:51.282Z,56.35
2023-02-24T15:09:00.355Z,55.92
2023-02-24T15:11:29.547Z,56.78
2023-02-24T15:14:00.968Z,57.13
2023-02-24T15:16:47.268Z,57.34
2023-02-24T15:19:29.964Z,58.13
2023-02-24T15:21:56.763Z,58.41
2023-02-24T15:24:31.592Z,58.53
2023-02-24T15:27:18.476Z,58.04
2023-02-24T15:29:45.320Z,58.23
2023-02-24T15:32:19.600Z,58.43
2023-02-24T15:34:48.011Z,58.57
2023-02-24T15:37:16.257Z,58.24
2023-02-24T15:39:43.528Z,58.09
2023-02-24T15:42:16.382Z,58.31
2023-02-24T15:44:56.561Z,58.98
2023-02-24T15:47:25.042Z,59.06
2023-02-24T15:49:52.686Z,59.13
2023-02-24T15:52:22.759Z,59.53
2023-02-24T15:54:49.487Z,59.59
2023-02-24T15:57:16.945Z,60.07
2023-02-24T15:59:44.198Z,60.49
2023-02-24T16:02:19.898Z,60.76
2023-02-24T16:04:47.417Z,60.60
2023-02-24T16:07:33.786Z,60.64
2023-02-24T16:10:00.589Z,61.04
2023-02-24T16:12:33.036Z,61.13
2023-02-24T16:15:03.376Z,61.54
2023-02-24T16:17:40.984Z,61.76
2023-02-24T16:20:15.855Z,61.92
2023-02-24T16:22:42.555Z,61.74
2023-02-24T16:25:10.461Z,62.16
2023-02-24T16:27:37.139Z,62.37
2023-02-24T16:30:04.210Z,62.75
2023-02-24T16:32:31.001Z,62.22
2023-02-24T16:34:57.870Z,62.27
2023-02-24T16:37:29.224Z,62.32
2023-02-24T16:39:55.996Z,62.72
2023-02-24T16:42:30.815Z,62.66
2023-02-24T16:44:57.293Z,63.01
2023-02-24T16:47:24.004Z,63.57
2023-02-24T16:49:50.797Z,63.74
2023-02-24T16:52:20.179Z,64.96
2023-02-24T16:54:48.306Z,64.42
2023-02-24T16:57:15.367Z,64.16
2023-02-24T16:59:42.014Z,63.62
2023-02-24T17:02:17.080Z,63.47
2023-02-24T17:04:43.764Z,63.17
2023-02-24T17:07:10.743Z,62.76
2023-02-24T17:09:37.429Z,62.68
2023-02-24T17:12:04.407Z,63.93
2023-02-24T17:14:31.221Z,64.39
2023-02-24T17:16:59.525Z,64.64
2023-02-24T17:19:26.371Z,65.63
2023-02-24T17:21:53.009Z,66.06
2023-02-24T17:24:19.910Z,62.52
2023-02-24T17:26:46.586Z,61.86
2023-02-24T17:29:13.839Z,63.22
2023-02-24T17:31:41.124Z,63.89
2023-02-24T17:34:08.013Z,65.02
2023-02-24T17:36:34.676Z,64.78
2023-02-24T17:39:01.487Z,63.82
2023-02-24T17:41:28.158Z,64.03
2023-02-24T17:43:54.984Z,64.04
2023-02-24T17:46:22.290Z,63.92
2023-02-24T17:48:49.160Z,63.76
2023-02-24T17:51:16.853Z,63.87
2023-02-24T17:53:43.624Z,64.18
2023-02-24T17:56:10.727Z,63.49
2023-02-24T17:58:37.453Z,62.71
2023-02-24T18:01:05.688Z,62.78
2023-02-24T18:03:33.269Z,63.04
2023-02-24T18:06:10.663Z,63.22
2023-02-24T18:08:37.764Z,63.77
2023-02-24T18:11:04.818Z,64.06
2023-02-24T18:13:31.653Z,64.39
2023-02-24T18:15:58.588Z,64.62
2023-02-24T18:18:26.004Z,65.41
2023-02-24T18:20:52.728Z,65.21
2023-02-24T18:23:19.887Z,65.01
2023-02-24T18:25:46.597Z,64.88
2023-02-24T18:28:13.314Z,64.88
2023-02-24T18:30:40.109Z,65.08
2023-02-24T18:33:07.024Z,65.57
2023-02-24T18:35:34.350Z,65.71
2023-02-24T18:38:01.034Z,65.82
2023-02-24T18:40:28.121Z,65.70
2023-02-24T18:42:54.985Z,65.48
2023-02-24T18:45:21.908Z,65.84
2023-02-24T18:47:50.786Z,66.04
2023-02-24T18:50:17.726Z,65.96
2023-02-24T18:52:44.437Z,65.88
2023-02-24T18:55:11.103Z,65.85
2023-02-24T18:57:37.859Z,65.84
2023-02-24T19:00:05.092Z,66.06
2023-02-24T19:02:31.852Z,66.04
2023-02-24T19:04:58.511Z,66.25
2023-02-24T19:07:25.241Z,66.32
2023-02-24T19:09:52.043Z,66.14
2023-02-24T19:12:20.432Z,66.18
2023-02-24T19:14:51.402Z,66.29
2023-02-24T19:17:18.735Z,66.29
2023-02-24T19:19:46.741Z,66.36
2023-02-24T19:22:13.465Z,66.62
2023-02-24T19:24:40.157Z,66.31
2023-02-24T19:27:06.882Z,66.25
2023-02-24T19:29:33.542Z,66.72
2023-02-24T19:32:00.366Z,66.70
2023-02-24T19:34:27.200Z,66.57
2023-02-24T19:36:53.862Z,66.34
2023-02-24T19:39:20.507Z,66.36
2023-02-24T19:41:49.532Z,66.38
2023-02-24T19:44:16.510Z,66.22
2023-02-24T19:46:43.373Z,66.36
2023-02-24T19:49:10.082Z,66.36
2023-02-24T19:51:36.827Z,66.42
2023-02-24T19:54:03.688Z,66.43
2023-02-24T19:56:31.241Z,66.53
2023-02-24T19:58:58.602Z,66.44
2023-02-24T20:01:26.521Z,66.27
2023-02-24T20:03:57.692Z,66.70
2023-02-24T20:06:31.358Z,66.99
2023-02-24T20:08:58.376Z,66.49
2023-02-24T20:11:25.006Z,66.68
2023-02-24T20:13:52.547Z,66.82
2023-02-24T20:16:19.803Z,66.93
2023-02-24T20:18:46.742Z,67.12
2023-02-24T20:21:13.726Z,67.42
2023-02-24T20:23:40.817Z,67.69
2023-02-24T20:26:07.854Z,68.01
2023-02-24T20:28:34.563Z,68.12
2023-02-24T20:31:06.901Z,68.28
2023-02-24T20:33:33.559Z,68.34
2023-02-24T20:36:00.218Z,68.47
2023-02-24T20:38:26.950Z,68.60
2023-02-24T20:40:59.925Z,69.06
2023-02-24T20:43:27.109Z,69.18
2023-02-24T20:45:54.258Z,69.71
2023-02-24T20:48:20.969Z,69.46
2023-02-24T20:50:47.604Z,69.39
2023-02-24T20:53:14.340Z,69.53
2023-02-24T20:55:40.926Z,69.78
2023-02-24T20:58:07.587Z,69.70
2023-02-24T21:00:34.398Z,69.82
2023-02-24T21:03:01.166Z,70.60
2023-02-24T21:05:27.908Z,70.57
2023-02-24T21:07:54.578Z,70.54
2023-02-24T21:10:25.892Z,70.39
2023-02-24T21:12:52.707Z,70.32
2023-02-24T21:15:19.890Z,70.43
2023-02-24T21:17:46.550Z,70.23
2023-02-24T21:20:13.377Z,70.52
2023-02-24T21:22:40.546Z,70.52
2023-02-24T21:25:08.131Z,70.43
2023-02-24T21:27:34.784Z,70.55
2023-02-24T21:30:01.511Z,70.58
2023-02-24T21:32:28.260Z,70.83
2023-02-24T21:34:54.987Z,70.97
2023-02-24T21:37:21.645Z,70.89
2023-02-24T21:39:49.208Z,70.61
2023-02-24T21:42:15.903Z,70.70
2023-02-24T21:44:44.568Z,70.44
2023-02-24T21:47:11.460Z,70.59
2023-02-24T21:49:38.148Z,70.44
2023-02-24T21:52:09.548Z,70.41
2023-02-24T21:54:36.202Z,70.30
2023-02-24T21:57:03.398Z,70.37
2023-02-24T21:59:30.059Z,69.88
2023-02-24T22:01:56.841Z,69.75
2023-02-24T22:04:23.516Z,69.89
2023-02-24T22:06:50.292Z,70.04
2023-02-24T22:09:20.223Z,70.23
2023-02-24T22:11:47.666Z,70.47
2023-02-24T22:14:14.857Z,70.83
2023-02-24T22:16:42.015Z,70.69
2023-02-24T22:19:08.688Z,70.61
2023-02-24T22:21:35.443Z,70.20
2023-02-24T22:24:02.522Z,70.09
2023-02-24T22:26:29.706Z,70.23
2023-02-24T22:28:56.548Z,70.35
2023-02-24T22:31:25.930Z,71.13
2023-02-24T22:33:52.721Z,71.54
2023-02-24T22:36:26.625Z,71.66
2023-02-24T22:38:54.538Z,71.75
2023-02-24T22:41:23.155Z,71.11
2023-02-24T22:43:49.775Z,71.14
2023-02-24T22:46:18.216Z,71.21
2023-02-24T22:48:45.020Z,70.86
2023-02-24T22:51:12.328Z,71.31
2023-02-24T22:53:40.310Z,71.55
2023-02-24T22:56:07.455Z,71.60
2023-02-24T22:58:34.201Z,72.03
2023-02-24T23:01:00.900Z,72.72
2023-02-24T23:03:30.719Z,72.30
2023-02-24T23:05:59.349Z,72.36
2023-02-24T23:08:27.295Z,72.79
2023-02-24T23:10:53.988Z,72.62
2023-02-24T23:13:21.029Z,72.40
2023-02-24T23:15:50.778Z,72.16
2023-02-24T23:18:17.437Z,72.23
2023-02-24T23:20:45.037Z,72.32
2023-02-24T23:23:11.845Z,72.36
2023-02-24T23:25:38.868Z,72.25
2023-02-24T23:28:06.477Z,72.27
2023-02-24T23:30:33.215Z,72.91
2023-02-24T23:33:00.900Z,73.11
2023-02-24T23:35:27.525Z,73.09
2023-02-24T23:37:54.143Z,73.33
2023-02-24T23:40:26.099Z,73.43
2023-02-24T23:42:53.308Z,73.51
2023-02-24T23:45:20.137Z,73.52
2023-02-24T23:47:46.877Z,72.73
2023-02-24T23:50:13.652Z,72.51
2023-02-24T23:52:40.306Z,73.07
2023-02-24T23:55:07.281Z,73.48
2023-02-24T23:57:34.396Z,73.06
